Time;durP1;ratioP1;P1;durP2;ratioP2;P2;SDS_P1;SDS_P2;PMS_P1;PMS_P2;Temp;Humidity;BMP_temperature;BMP_pressure;BME280_temperature;BME280_humidity;BME280_pressure;Samples;Min_cycle;Max_cycle;Signal;HPM_P1;HPM_P2
2023/12/27 00:00:43;;;;;;;5.25;0.77;;;2.00;99.90;;;;;;5081438;28;20043;-78
2023/12/27 00:03:09;;;;;;;5.30;0.85;;;2.10;99.90;;;;;;5083752;28;20109;-77
2023/12/27 00:05:34;;;;;;;0.98;0.77;;;2.10;99.90;;;;;;5066037;28;20040;-78
2023/12/27 00:08:08;;;;;;;1.23;0.65;;;2.10;99.90;;;;;;5087086;27;20418;-67
2023/12/27 00:10:34;;;;;;;0.63;0.50;;;2.00;99.90;;;;;;5068836;28;20041;-67
2023/12/27 00:13:00;;;;;;;0.52;0.43;;;2.00;99.90;;;;;;5065646;28;20041;-67
2023/12/27 00:15:25;;;;;;;4.35;0.70;;;1.90;99.90;;;;;;5049009;28;20071;-67
2023/12/27 00:17:51;;;;;;;1.75;0.55;;;1.90;99.90;;;;;;5066577;28;20075;-67
2023/12/27 00:20:17;;;;;;;0.98;0.65;;;2.00;99.90;;;;;;5066070;28;20098;-67
2023/12/27 00:22:43;;;;;;;2.13;0.68;;;2.00;99.90;;;;;;5049796;28;20032;-67
2023/12/27 00:25:09;;;;;;;0.65;0.50;;;2.00;99.90;;;;;;5067021;28;20041;-67
2023/12/27 00:27:34;;;;;;;3.05;0.85;;;1.90;99.90;;;;;;5071467;28;20041;-67
2023/12/27 00:30:00;;;;;;;0.73;0.43;;;1.80;99.90;;;;;;5067363;28;20083;-67
2023/12/27 00:32:27;;;;;;;2.22;0.63;;;1.70;99.90;;;;;;5066720;28;20044;-67
2023/12/27 00:35:02;;;;;;;3.80;0.60;;;1.70;99.90;;;;;;5050581;28;20035;-67
2023/12/27 00:37:28;;;;;;;1.58;0.60;;;1.60;99.90;;;;;;5069017;28;20390;-67
2023/12/27 00:39:53;;;;;;;4.10;0.70;;;1.60;99.90;;;;;;5068334;28;20055;-67
2023/12/27 00:42:19;;;;;;;1.48;0.82;;;1.50;99.90;;;;;;5070974;28;20512;-67
2023/12/27 00:44:45;;;;;;;3.42;0.60;;;1.50;99.90;;;;;;5070036;28;20105;-67
2023/12/27 00:47:11;;;;;;;0.93;0.43;;;1.50;99.90;;;;;;5067937;28;20485;-67
2023/12/27 00:49:37;;;;;;;0.80;0.63;;;1.50;99.90;;;;;;5066998;28;20512;-67
2023/12/27 00:52:02;;;;;;;8.75;1.45;;;1.40;99.90;;;;;;5070350;28;20037;-67
2023/12/27 00:54:28;;;;;;;1.58;0.98;;;1.40;99.90;;;;;;5066567;28;20055;-67
2023/12/27 00:56:54;;;;;;;4.47;0.88;;;1.50;99.90;;;;;;5070576;28;20190;-67
2023/12/27 00:59:20;;;;;;;3.80;0.63;;;1.50;99.90;;;;;;5070578;28;20040;-67
2023/12/27 01:01:46;;;;;;;0.60;0.55;;;1.50;99.90;;;;;;5050039;28;20521;-67
2023/12/27 01:04:13;;;;;;;1.40;1.13;;;1.60;99.90;;;;;;5066409;28;20041;-67
2023/12/27 01:06:39;;;;;;;5.03;0.98;;;1.60;99.90;;;;;;5065996;28;20060;-67
2023/12/27 01:09:07;;;;;;;5.03;1.55;;;1.70;99.90;;;;;;5066374;28;20041;-67
2023/12/27 01:11:33;;;;;;;4.75;1.20;;;1.70;99.90;;;;;;5096809;28;20036;-67
2023/12/27 01:13:59;;;;;;;3.40;0.63;;;1.80;99.90;;;;;;5070264;28;20033;-67
2023/12/27 01:16:24;;;;;;;3.30;1.13;;;1.80;99.90;;;;;;5070209;28;20040;-67
2023/12/27 01:18:52;;;;;;;7.20;1.33;;;1.80;99.90;;;;;;5043779;28;20408;-67
2023/12/27 01:21:17;;;;;;;1.27;0.60;;;1.80;99.90;;;;;;5056967;28;20045;-67
2023/12/27 01:23:44;;;;;;;3.65;0.80;;;1.80;99.90;;;;;;5057090;28;20047;-67
2023/12/27 01:26:10;;;;;;;2.95;1.08;;;1.90;99.90;;;;;;5090127;28;20053;-67
2023/12/27 01:28:39;;;;;;;3.73;1.37;;;1.80;99.90;;;;;;5053522;28;20040;-67
2023/12/27 01:31:05;;;;;;;6.95;1.15;;;1.80;99.90;;;;;;5052622;28;20037;-67
2023/12/27 01:33:31;;;;;;;2.72;0.73;;;1.70;99.90;;;;;;5052859;28;20115;-67
2023/12/27 01:35:58;;;;;;;1.83;0.88;;;1.70;99.90;;;;;;5035559;28;20103;-67
2023/12/27 01:38:25;;;;;;;3.42;1.40;;;1.60;99.90;;;;;;5052484;28;20091;-67
2023/12/27 01:40:51;;;;;;;1.30;0.90;;;1.60;99.90;;;;;;5052121;28;20124;-67
2023/12/27 01:43:18;;;;;;;1.30;0.60;;;1.60;99.90;;;;;;5036125;28;20041;-67
2023/12/27 01:45:47;;;;;;;2.35;1.05;;;1.60;99.90;;;;;;5054696;28;20045;-67
2023/12/27 01:48:13;;;;;;;2.75;1.08;;;1.50;99.90;;;;;;5034740;28;20508;-67
2023/12/27 01:50:39;;;;;;;0.88;0.50;;;1.50;99.90;;;;;;5051185;28;20068;-67
2023/12/27 01:53:05;;;;;;;1.98;0.57;;;1.50;99.90;;;;;;5051786;28;20079;-67
2023/12/27 01:55:31;;;;;;;2.83;1.08;;;1.40;99.90;;;;;;5051167;28;20437;-67
2023/12/27 01:58:10;;;;;;;4.18;1.27;;;1.30;99.90;;;;;;5053176;28;20051;-67
2023/12/27 02:00:45;;;;;;;1.38;0.80;;;1.20;99.90;;;;;;5054754;28;20048;-67
2023/12/27 02:03:11;;;;;;;5.75;1.27;;;1.20;99.90;;;;;;5047352;28;20049;-67
2023/12/27 02:05:38;;;;;;;3.47;0.95;;;1.10;99.90;;;;;;5050788;28;20041;-67
2023/12/27 02:08:06;;;;;;;1.75;0.57;;;1.10;99.90;;;;;;5050330;28;20080;-68
2023/12/27 02:10:32;;;;;;;1.17;0.88;;;1.10;99.90;;;;;;5050865;28;20037;-67
2023/12/27 02:13:04;;;;;;;5.43;0.98;;;1.00;99.90;;;;;;5050500;28;20079;-67
2023/12/27 02:15:30;;;;;;;8.48;1.23;;;1.00;99.90;;;;;;5059098;28;20033;-67
2023/12/27 02:18:25;;;;;;;2.58;1.50;;;1.00;99.90;;;;;;5058586;28;20047;-67
2023/12/27 02:20:52;;;;;;;1.10;0.75;;;1.00;99.90;;;;;;5082249;28;20120;-68
2023/12/27 02:23:20;;;;;;;1.60;0.90;;;1.00;99.90;;;;;;5034645;28;20045;-68
2023/12/27 02:25:48;;;;;;;2.25;1.10;;;1.10;99.90;;;;;;5014299;28;20392;-67
2023/12/27 02:28:13;;;;;;;3.28;1.40;;;1.10;99.90;;;;;;5033800;28;20052;-67
2023/12/27 02:30:39;;;;;;;3.40;0.95;;;1.10;99.90;;;;;;5034179;28;20033;-68
2023/12/27 02:33:05;;;;;;;6.45;1.15;;;1.10;99.90;;;;;;5030170;28;20116;-68
2023/12/27 02:35:31;;;;;;;3.78;1.95;;;1.10;99.90;;;;;;5030572;28;20041;-68
2023/12/27 02:37:57;;;;;;;1.38;0.82;;;1.10;99.90;;;;;;5035420;28;20057;-68
2023/12/27 02:40:23;;;;;;;1.77;1.45;;;1.10;99.90;;;;;;5029925;28;20135;-68
2023/12/27 02:42:49;;;;;;;6.05;0.80;;;1.20;99.90;;;;;;5034007;28;20073;-67
2023/12/27 02:45:15;;;;;;;2.58;1.05;;;1.30;99.90;;;;;;5017512;28;20049;-68
2023/12/27 02:47:40;;;;;;;4.65;1.50;;;1.40;99.90;;;;;;5030206;28;20094;-68
2023/12/27 02:50:07;;;;;;;4.63;1.20;;;1.50;99.90;;;;;;5030316;28;20060;-68
2023/12/27 02:52:32;;;;;;;6.18;1.20;;;1.70;99.90;;;;;;5028925;28;20123;-68
2023/12/27 02:54:58;;;;;;;2.78;1.50;;;1.80;99.90;;;;;;5030190;28;20078;-68
2023/12/27 02:57:24;;;;;;;4.80;0.73;;;1.80;99.90;;;;;;5034015;28;20051;-68
2023/12/27 02:59:49;;;;;;;1.63;0.70;;;1.80;99.90;;;;;;5035439;28;20048;-68
2023/12/27 03:02:15;;;;;;;1.75;1.00;;;1.80;99.90;;;;;;5030248;28;20113;-68
2023/12/27 03:04:41;;;;;;;2.75;1.20;;;1.80;99.90;;;;;;5029643;28;20041;-68
2023/12/27 03:07:07;;;;;;;2.55;1.27;;;1.80;99.90;;;;;;5029953;28;20096;-68
2023/12/27 03:09:33;;;;;;;3.92;1.13;;;1.80;99.90;;;;;;5030201;28;20052;-68
2023/12/27 03:11:59;;;;;;;8.77;1.45;;;1.90;99.90;;;;;;5033508;28;20256;-68
2023/12/27 03:14:25;;;;;;;3.00;1.58;;;1.90;99.90;;;;;;5029518;28;20040;-67
2023/12/27 03:16:51;;;;;;;0.98;0.93;;;1.90;99.90;;;;;;5030164;28;20116;-68
2023/12/27 03:19:17;;;;;;;6.38;1.48;;;1.90;99.90;;;;;;5029300;28;20037;-68
2023/12/27 03:21:42;;;;;;;1.90;0.90;;;2.00;99.90;;;;;;5033917;28;20079;-69
2023/12/27 03:24:08;;;;;;;0.73;0.52;;;2.00;99.90;;;;;;5031571;28;20056;-69
2023/12/27 03:26:34;;;;;;;1.85;0.90;;;1.90;99.90;;;;;;5012174;28;20042;-69
2023/12/27 03:29:00;;;;;;;2.22;0.93;;;1.90;99.90;;;;;;5040865;28;20079;-69
2023/12/27 03:31:28;;;;;;;2.90;1.42;;;1.80;99.90;;;;;;5029881;28;20033;-68
2023/12/27 03:33:58;;;;;;;1.95;1.17;;;1.80;99.90;;;;;;5016731;28;20551;-68
2023/12/27 03:36:27;;;;;;;1.42;1.17;;;1.80;99.90;;;;;;5034993;28;20115;-68
2023/12/27 03:38:54;;;;;;;2.00;1.15;;;1.70;99.90;;;;;;5013909;28;20037;-68
2023/12/27 03:41:26;;;;;;;1.27;0.60;;;1.70;99.90;;;;;;5029047;28;20073;-68
2023/12/27 03:43:58;;;;;;;4.15;1.50;;;1.70;99.90;;;;;;5021099;28;20041;-68
2023/12/27 03:46:24;;;;;;;2.20;1.15;;;1.60;99.90;;;;;;5033122;28;20080;-68
2023/12/27 03:48:49;;;;;;;4.82;1.38;;;1.60;99.90;;;;;;5033459;28;20079;-68
2023/12/27 03:51:18;;;;;;;1.27;0.80;;;1.60;99.90;;;;;;5013349;28;20029;-68
2023/12/27 03:53:44;;;;;;;1.63;0.93;;;1.70;99.90;;;;;;5029723;28;20355;-68
2023/12/27 03:56:12;;;;;;;4.78;1.90;;;1.70;99.90;;;;;;5033746;28;20052;-69
2023/12/27 03:58:42;;;;;;;2.22;1.25;;;1.80;99.90;;;;;;5036217;28;20037;-68
2023/12/27 04:01:09;;;;;;;3.03;2.03;;;1.90;99.90;;;;;;5013476;28;20515;-68
2023/12/27 04:03:35;;;;;;;6.45;1.92;;;1.90;99.90;;;;;;5015005;28;20034;-68
2023/12/27 04:06:00;;;;;;;2.67;1.73;;;1.90;99.90;;;;;;5030889;28;20115;-68
2023/12/27 04:08:26;;;;;;;4.10;1.90;;;2.00;99.90;;;;;;5034982;28;20080;-68
2023/12/27 04:10:52;;;;;;;2.10;1.60;;;2.00;99.90;;;;;;5033385;28;20702;-68
2023/12/27 04:13:18;;;;;;;9.02;1.90;;;1.90;99.90;;;;;;5029261;28;20033;-68
2023/12/27 04:15:44;;;;;;;1.80;1.23;;;2.00;99.90;;;;;;5016794;28;20041;-69
2023/12/27 04:18:12;;;;;;;4.00;2.08;;;2.00;99.90;;;;;;5032281;28;20118;-68
2023/12/27 04:20:38;;;;;;;3.72;1.40;;;2.00;99.90;;;;;;5028627;28;20042;-68
2023/12/27 04:23:03;;;;;;;3.05;1.63;;;2.00;99.90;;;;;;5028697;28;20053;-69
2023/12/27 04:25:29;;;;;;;2.83;1.25;;;2.10;99.90;;;;;;5012857;28;20049;-68
2023/12/27 04:27:55;;;;;;;2.53;1.52;;;2.10;99.90;;;;;;5027189;28;20041;-68
2023/12/27 04:30:21;;;;;;;2.25;1.50;;;2.10;99.90;;;;;;5028898;28;20124;-69
2023/12/27 04:32:46;;;;;;;2.33;1.42;;;2.10;99.90;;;;;;5029318;28;20504;-69
2023/12/27 04:35:12;;;;;;;3.40;1.60;;;2.20;99.90;;;;;;5028937;28;20111;-68
2023/12/27 04:37:38;;;;;;;1.90;1.50;;;2.20;99.90;;;;;;5031815;28;20037;-68
2023/12/27 04:40:04;;;;;;;2.58;1.30;;;2.20;99.90;;;;;;5060860;28;20049;-69
2023/12/27 04:42:30;;;;;;;2.83;1.70;;;2.20;99.90;;;;;;5032732;28;20045;-69
2023/12/27 04:44:56;;;;;;;2.28;1.70;;;2.20;99.90;;;;;;5028773;28;20053;-68
2023/12/27 04:47:22;;;;;;;3.70;1.42;;;2.20;99.90;;;;;;5028454;28;20041;-69
2023/12/27 04:49:48;;;;;;;3.03;1.83;;;2.20;99.90;;;;;;5037017;28;20490;-69
2023/12/27 04:52:15;;;;;;;3.15;2.03;;;2.20;99.90;;;;;;5027731;28;20037;-69
2023/12/27 04:54:41;;;;;;;6.20;2.58;;;2.30;99.90;;;;;;5034701;28;20052;-68
2023/12/27 04:57:06;;;;;;;4.15;1.77;;;2.20;99.90;;;;;;5015636;28;20037;-68
2023/12/27 04:59:33;;;;;;;6.20;2.03;;;2.20;99.90;;;;;;5036445;28;20408;-68
2023/12/27 05:01:59;;;;;;;4.28;2.80;;;2.20;99.90;;;;;;5030567;28;20401;-68
2023/12/27 05:04:24;;;;;;;2.50;1.98;;;2.20;99.90;;;;;;5032229;28;20069;-68
2023/12/27 05:06:50;;;;;;;2.47;1.50;;;2.20;99.90;;;;;;5031992;28;20044;-68
2023/12/27 05:09:17;;;;;;;2.15;1.35;;;2.20;99.90;;;;;;5015164;28;20087;-68
2023/12/27 05:11:43;;;;;;;5.15;1.77;;;2.30;99.90;;;;;;5031936;28;20053;-68
2023/12/27 05:14:08;;;;;;;2.65;1.52;;;2.30;99.90;;;;;;5031708;28;20041;-68
2023/12/27 05:16:34;;;;;;;6.53;2.42;;;2.30;99.90;;;;;;5035618;28;20048;-68
2023/12/27 05:19:00;;;;;;;16.70;2.35;;;2.30;99.90;;;;;;5035908;28;20072;-69
2023/12/27 05:21:26;;;;;;;3.85;2.10;;;2.40;99.90;;;;;;5030986;28;20091;-69
2023/12/27 05:23:52;;;;;;;6.57;2.38;;;2.40;99.90;;;;;;5029146;28;20142;-69
2023/12/27 05:26:18;;;;;;;9.10;2.33;;;2.40;99.90;;;;;;5048709;28;20053;-69
2023/12/27 05:28:44;;;;;;;3.25;1.73;;;2.50;99.90;;;;;;5069159;28;20054;-68
2023/12/27 05:31:10;;;;;;;2.30;1.13;;;2.50;99.90;;;;;;5031485;28;20140;-69
2023/12/27 05:33:36;;;;;;;3.75;1.40;;;2.60;99.90;;;;;;5031241;28;20448;-69
2023/12/27 05:36:02;;;;;;;4.97;1.75;;;2.60;99.90;;;;;;5032152;28;20037;-69
2023/12/27 05:38:27;;;;;;;4.95;1.83;;;2.60;99.90;;;;;;5016685;28;20421;-69
2023/12/27 05:40:53;;;;;;;1.63;1.08;;;2.60;99.90;;;;;;5028990;28;20049;-69
2023/12/27 05:43:19;;;;;;;2.28;1.33;;;2.70;99.90;;;;;;5029362;28;20079;-69
2023/12/27 05:45:45;;;;;;;2.78;1.67;;;2.70;99.90;;;;;;5039433;28;20529;-69
2023/12/27 05:48:11;;;;;;;1.73;1.25;;;2.70;99.90;;;;;;5031560;28;20529;-69
2023/12/27 05:50:37;;;;;;;1.95;1.23;;;2.80;99.90;;;;;;5039542;28;20037;-70
2023/12/27 05:53:03;;;;;;;3.20;1.65;;;2.80;99.90;;;;;;5014897;28;20594;-69
2023/12/27 05:55:30;;;;;;;4.65;2.03;;;2.80;99.90;;;;;;5029405;28;20120;-70
2023/12/27 05:57:56;;;;;;;7.22;1.88;;;2.80;99.90;;;;;;5035647;28;20052;-70
2023/12/27 06:00:22;;;;;;;2.63;1.33;;;2.90;99.90;;;;;;5021335;28;20041;-70
2023/12/27 06:02:47;;;;;;;2.30;1.50;;;2.90;99.90;;;;;;5046522;28;20533;-70
2023/12/27 06:05:13;;;;;;;2.67;1.45;;;3.00;99.90;;;;;;5030405;28;20041;-69
2023/12/27 06:07:40;;;;;;;2.83;1.73;;;2.90;99.90;;;;;;5032338;28;20045;-69
2023/12/27 06:10:06;;;;;;;4.88;1.70;;;3.00;99.90;;;;;;5016960;28;20120;-69
2023/12/27 06:12:32;;;;;;;1.52;1.10;;;3.00;99.90;;;;;;5030767;28;20037;-69
2023/12/27 06:15:00;;;;;;;4.15;1.80;;;3.00;99.90;;;;;;5034585;28;20099;-69
2023/12/27 06:17:25;;;;;;;4.03;1.65;;;3.10;99.90;;;;;;5032301;28;20075;-68
2023/12/27 06:19:51;;;;;;;2.40;1.63;;;3.10;99.90;;;;;;5035038;28;20053;-69
2023/12/27 06:22:17;;;;;;;5.30;2.05;;;3.10;99.90;;;;;;5028482;28;20033;-70
2023/12/27 06:24:43;;;;;;;3.50;1.92;;;3.10;99.90;;;;;;5035203;28;20041;-68
2023/12/27 06:27:10;;;;;;;3.20;1.55;;;3.10;99.90;;;;;;5020005;28;20056;-68
2023/12/27 06:29:36;;;;;;;5.32;2.00;;;3.20;99.90;;;;;;5012369;28;20056;-69
2023/12/27 06:32:02;;;;;;;7.22;2.47;;;3.20;99.90;;;;;;5030683;28;20429;-69
2023/12/27 06:34:28;;;;;;;2.63;1.83;;;3.20;99.90;;;;;;5014168;28;20034;-69
2023/12/27 06:36:54;;;;;;;2.25;1.65;;;3.20;99.90;;;;;;5019679;28;20045;-68
2023/12/27 06:39:20;;;;;;;8.05;1.58;;;3.20;99.90;;;;;;5027612;28;20045;-69
2023/12/27 06:41:46;;;;;;;5.18;1.27;;;3.30;99.90;;;;;;5018117;28;20471;-70
2023/12/27 06:44:11;;;;;;;2.15;1.13;;;3.30;99.90;;;;;;5030573;28;20056;-70
2023/12/27 06:46:38;;;;;;;2.20;1.40;;;3.30;99.90;;;;;;5013501;28;20038;-68
2023/12/27 06:49:03;;;;;;;7.53;2.08;;;3.30;99.90;;;;;;5013989;28;20041;-69
2023/12/27 06:51:29;;;;;;;6.32;1.38;;;3.40;99.90;;;;;;5030528;28;20808;-69
2023/12/27 06:53:55;;;;;;;3.78;1.63;;;3.40;99.90;;;;;;5038887;28;20034;-69
2023/12/27 06:56:21;;;;;;;4.65;1.95;;;3.40;99.90;;;;;;5034653;28;20435;-69
2023/12/27 06:58:46;;;;;;;3.50;1.27;;;3.40;99.90;;;;;;5016884;28;20766;-68
2023/12/27 07:01:14;;;;;;;3.00;1.58;;;3.40;99.90;;;;;;5029912;28;20045;-69
2023/12/27 07:03:40;;;;;;;3.63;1.38;;;3.40;99.90;;;;;;5010608;28;20056;-71
2023/12/27 07:06:06;;;;;;;7.80;1.75;;;3.40;99.90;;;;;;5033919;28;20053;-69
2023/12/27 07:08:33;;;;;;;3.80;1.48;;;3.50;99.90;;;;;;5029927;28;20106;-68
2023/12/27 07:10:59;;;;;;;3.92;2.00;;;3.50;99.90;;;;;;5029023;28;20418;-69
2023/12/27 07:13:25;;;;;;;3.78;1.88;;;3.50;99.90;;;;;;5016479;28;20106;-69
2023/12/27 07:15:50;;;;;;;2.75;1.90;;;3.50;99.90;;;;;;5030551;28;20049;-69
2023/12/27 07:18:16;;;;;;;4.22;1.90;;;3.50;99.90;;;;;;5034046;28;20405;-69
2023/12/27 07:20:42;;;;;;;6.30;1.52;;;3.50;99.90;;;;;;5029342;28;20041;-68
2023/12/27 07:23:08;;;;;;;2.35;1.40;;;3.60;99.90;;;;;;5038076;28;20167;-68
2023/12/27 07:25:34;;;;;;;3.45;1.77;;;3.60;99.90;;;;;;5033368;28;20041;-70
2023/12/27 07:28:00;;;;;;;10.27;2.20;;;3.60;99.90;;;;;;5033894;28;20037;-70
2023/12/27 07:30:26;;;;;;;2.72;1.67;;;3.60;99.90;;;;;;5027335;28;20050;-70
2023/12/27 07:32:52;;;;;;;8.10;1.70;;;3.60;99.90;;;;;;5028017;28;20038;-69
2023/12/27 07:35:18;;;;;;;12.00;2.53;;;3.60;99.90;;;;;;5029655;28;20056;-69
2023/12/27 07:37:46;;;;;;;4.78;2.25;;;3.70;99.90;;;;;;5015036;28;20041;-71
2023/12/27 07:40:13;;;;;;;2.10;1.50;;;3.70;99.90;;;;;;5034711;28;20102;-71
2023/12/27 07:42:39;;;;;;;6.25;3.08;;;3.80;99.90;;;;;;5029348;28;20045;-71
2023/12/27 07:45:06;;;;;;;4.85;2.08;;;3.80;99.90;;;;;;5029985;28;20056;-72
2023/12/27 07:47:32;;;;;;;5.35;1.88;;;3.80;99.90;;;;;;5036154;28;20045;-70
2023/12/27 07:49:58;;;;;;;5.65;2.78;;;3.90;99.90;;;;;;5025560;28;20129;-68
2023/12/27 07:52:24;;;;;;;3.80;1.70;;;3.90;99.90;;;;;;5028936;28;20512;-68
2023/12/27 07:54:50;;;;;;;3.92;2.33;;;3.90;99.90;;;;;;5029558;28;20037;-69
2023/12/27 07:57:16;;;;;;;4.72;2.28;;;4.00;99.90;;;;;;5013038;28;20412;-70
2023/12/27 07:59:41;;;;;;;3.10;1.92;;;4.00;99.90;;;;;;5032792;28;20100;-68
2023/12/27 08:02:07;;;;;;;5.72;1.85;;;4.00;99.90;;;;;;5029504;28;20068;-69
2023/12/27 08:04:33;;;;;;;7.22;2.47;;;4.10;99.90;;;;;;5032857;28;20453;-69
2023/12/27 08:07:00;;;;;;;4.93;1.88;;;4.10;99.90;;;;;;5027864;28;20060;-70
2023/12/27 08:09:26;;;;;;;2.10;1.55;;;4.10;99.90;;;;;;5027055;28;20889;-70
2023/12/27 08:11:53;;;;;;;3.92;1.67;;;4.20;99.90;;;;;;5027907;28;20044;-70
2023/12/27 08:14:18;;;;;;;3.05;1.08;;;4.20;99.90;;;;;;5026020;28;21764;-72
2023/12/27 08:16:44;;;;;;;3.42;2.17;;;4.20;99.90;;;;;;5029137;28;20045;-70
2023/12/27 08:19:10;;;;;;;5.82;1.90;;;4.20;99.90;;;;;;5011752;28;20045;-71
2023/12/27 08:21:36;;;;;;;4.97;2.03;;;4.30;99.90;;;;;;5036281;28;20045;-68
2023/12/27 08:24:02;;;;;;;3.45;2.10;;;4.30;99.90;;;;;;5028944;28;20120;-70
2023/12/27 08:26:27;;;;;;;5.75;2.60;;;4.30;99.90;;;;;;5033120;28;20050;-68
2023/12/27 08:28:53;;;;;;;4.80;2.30;;;4.30;99.90;;;;;;5024837;28;20055;-67
2023/12/27 08:31:19;;;;;;;7.50;2.60;;;4.40;99.90;;;;;;5032041;28;20744;-69
2023/12/27 08:33:48;;;;;;;5.00;2.20;;;4.30;99.90;;;;;;5029300;28;20439;-68
2023/12/27 08:36:14;;;;;;;4.70;1.75;;;4.40;99.90;;;;;;5016266;28;20044;-69
2023/12/27 08:38:41;;;;;;;3.00;1.80;;;4.40;99.90;;;;;;5031371;28;20037;-68
2023/12/27 08:41:07;;;;;;;4.18;1.88;;;4.40;99.90;;;;;;5032786;28;20064;-68
2023/12/27 08:43:35;;;;;;;4.63;2.03;;;4.40;99.90;;;;;;5030966;28;20088;-67
2023/12/27 08:46:01;;;;;;;7.28;2.08;;;4.50;99.90;;;;;;5032769;28;20049;-67
2023/12/27 08:48:27;;;;;;;4.93;1.42;;;4.50;99.90;;;;;;5032619;28;20049;-67
2023/12/27 08:50:53;;;;;;;5.53;2.30;;;4.50;99.90;;;;;;5031162;28;20046;-67
2023/12/27 08:53:19;;;;;;;3.17;1.70;;;4.50;99.90;;;;;;5027401;28;20516;-68
2023/12/27 08:55:44;;;;;;;9.38;2.10;;;4.50;99.90;;;;;;5027155;28;20086;-68
2023/12/27 08:58:12;;;;;;;8.35;2.10;;;4.60;99.90;;;;;;5028239;28;20050;-68
2023/12/27 09:00:38;;;;;;;5.28;2.38;;;4.60;99.90;;;;;;5028423;28;20665;-68
2023/12/27 09:03:04;;;;;;;3.28;2.38;;;4.60;99.90;;;;;;5027777;28;20041;-68
2023/12/27 09:05:30;;;;;;;4.40;2.03;;;4.70;99.90;;;;;;5010623;28;20065;-69
2023/12/27 09:07:55;;;;;;;3.08;2.00;;;4.70;99.90;;;;;;5025979;28;20490;-69
2023/12/27 09:10:22;;;;;;;6.10;2.13;;;4.70;99.90;;;;;;5026986;28;20052;-68
2023/12/27 09:12:48;;;;;;;5.10;2.28;;;4.70;99.90;;;;;;5026784;28;20030;-69
2023/12/27 09:15:14;;;;;;;4.53;2.33;;;4.70;99.90;;;;;;5010039;28;20374;-69
2023/12/27 09:17:39;;;;;;;4.35;1.80;;;4.80;99.90;;;;;;5027416;28;20531;-68
2023/12/27 09:20:07;;;;;;;9.95;2.08;;;4.80;99.90;;;;;;5025519;28;20045;-70
2023/12/27 09:22:34;;;;;;;5.18;2.30;;;4.90;99.90;;;;;;5026291;28;20543;-70
2023/12/27 09:24:59;;;;;;;2.22;1.67;;;4.90;99.90;;;;;;5026704;28;20513;-69
2023/12/27 09:27:26;;;;;;;3.92;2.42;;;4.90;99.90;;;;;;5027122;28;20038;-69
2023/12/27 09:29:52;;;;;;;7.10;2.50;;;4.90;99.90;;;;;;5025514;28;20065;-70
2023/12/27 09:32:18;;;;;;;5.93;2.60;;;5.00;99.90;;;;;;5027041;28;20497;-71
2023/12/27 09:34:44;;;;;;;3.88;2.85;;;5.00;99.90;;;;;;5027725;28;20040;-71
2023/12/27 09:37:10;;;;;;;6.85;2.60;;;5.00;99.90;;;;;;5026297;28;20041;-71
2023/12/27 09:39:36;;;;;;;8.48;3.15;;;5.10;99.90;;;;;;5027676;28;20059;-72
2023/12/27 09:42:02;;;;;;;4.57;2.25;;;5.10;99.90;;;;;;5027169;28;20488;-71
2023/12/27 09:44:28;;;;;;;4.30;2.42;;;5.10;99.90;;;;;;5026804;28;20187;-70
2023/12/27 09:46:56;;;;;;;3.88;2.30;;;5.10;99.90;;;;;;5025841;28;20049;-70
2023/12/27 09:49:23;;;;;;;9.48;2.30;;;5.10;99.90;;;;;;5026794;28;20046;-71
2023/12/27 09:51:48;;;;;;;7.03;2.30;;;5.10;99.90;;;;;;5027837;28;20041;-72
2023/12/27 09:54:16;;;;;;;8.75;3.60;;;5.20;99.90;;;;;;5028027;28;20124;-72
2023/12/27 09:56:43;;;;;;;10.30;4.03;;;5.20;99.90;;;;;;5025066;28;20041;-70
2023/12/27 09:59:17;;;;;;;5.63;2.38;;;5.20;99.90;;;;;;5028281;28;20054;-71
2023/12/27 10:01:50;;;;;;;7.13;2.75;;;5.20;99.90;;;;;;5026759;28;20068;-72
2023/12/27 10:04:32;;;;;;;5.60;2.45;;;5.20;99.90;;;;;;5028420;28;20045;-72
2023/12/27 10:06:58;;;;;;;5.18;1.88;;;5.30;99.90;;;;;;5029539;28;20052;-75
2023/12/27 10:09:24;;;;;;;6.25;2.58;;;5.30;99.90;;;;;;5046001;28;20393;-71
2023/12/27 10:11:50;;;;;;;4.50;2.40;;;5.30;99.90;;;;;;5025644;28;20045;-71
2023/12/27 10:14:17;;;;;;;4.07;2.65;;;5.30;99.90;;;;;;5027731;28;20048;-72
2023/12/27 10:16:43;;;;;;;4.95;2.55;;;5.30;99.90;;;;;;5028247;28;20136;-72
2023/12/27 10:19:39;;;;;;;7.65;3.05;;;5.30;99.90;;;;;;5031511;28;20235;-73
2023/12/27 10:22:05;;;;;;;9.05;2.67;;;5.30;99.90;;;;;;5029644;28;20080;-73
2023/12/27 10:24:31;;;;;;;8.18;3.08;;;5.30;99.90;;;;;;5013791;28;20115;-72
2023/12/27 10:26:57;;;;;;;11.43;3.63;;;5.30;99.90;;;;;;5028812;28;20037;-72
2023/12/27 10:29:24;;;;;;;8.38;3.15;;;5.30;99.90;;;;;;5027043;28;20048;-72
2023/12/27 10:31:49;;;;;;;7.78;2.90;;;5.30;99.90;;;;;;5026175;28;20562;-71
2023/12/27 10:34:15;;;;;;;3.40;2.47;;;5.30;99.90;;;;;;5009973;28;20034;-72
2023/12/27 10:36:42;;;;;;;10.23;2.95;;;5.30;99.90;;;;;;5011690;28;20068;-75
2023/12/27 10:39:09;;;;;;;3.90;2.33;;;5.30;99.90;;;;;;5025259;28;20068;-75
2023/12/27 10:41:37;;;;;;;5.13;2.72;;;5.30;99.90;;;;;;5060816;28;20052;-73
2023/12/27 10:44:06;;;;;;;6.32;2.33;;;5.30;99.90;;;;;;5061201;28;20460;-72
2023/12/27 10:46:33;;;;;;;6.97;3.38;;;5.30;99.90;;;;;;5062655;28;20045;-74
2023/12/27 10:49:03;;;;;;;9.52;2.72;;;5.30;99.90;;;;;;5030023;28;20088;-74
2023/12/27 10:51:30;;;;;;;5.70;2.97;;;5.40;99.90;;;;;;5011831;28;20505;-73
2023/12/27 10:54:00;;;;;;;4.40;2.70;;;5.40;99.90;;;;;;5024814;28;20046;-73
2023/12/27 10:56:27;;;;;;;4.47;3.05;;;5.40;99.90;;;;;;5041646;28;20485;-72
2023/12/27 10:58:53;;;;;;;8.43;3.22;;;5.40;99.90;;;;;;5025546;28;20057;-72
2023/12/27 11:01:20;;;;;;;3.90;2.40;;;5.40;99.90;;;;;;5026729;28;20049;-73
2023/12/27 11:03:47;;;;;;;4.50;2.25;;;5.40;99.90;;;;;;5025581;28;20041;-73
2023/12/27 11:06:16;;;;;;;6.25;3.45;;;5.40;99.90;;;;;;5024119;28;20085;-73
2023/12/27 11:08:45;;;;;;;5.47;2.05;;;5.40;99.90;;;;;;5023340;28;20057;-70
2023/12/27 11:11:15;;;;;;;6.97;3.15;;;5.40;99.90;;;;;;5024402;28;20087;-68
2023/12/27 11:13:42;;;;;;;5.28;3.25;;;5.40;99.90;;;;;;5023990;28;20037;-71
2023/12/27 11:16:09;;;;;;;12.20;3.33;;;5.50;99.90;;;;;;5025376;28;20125;-72
2023/12/27 11:18:35;;;;;;;7.63;3.75;;;5.50;99.90;;;;;;5024263;28;20124;-73
2023/12/27 11:21:01;;;;;;;4.68;3.13;;;5.50;99.90;;;;;;5024425;28;20435;-72
2023/12/27 11:23:28;;;;;;;5.20;3.33;;;5.50;99.90;;;;;;5024419;28;20494;-70
2023/12/27 11:25:59;;;;;;;5.22;2.75;;;5.50;99.90;;;;;;5023217;28;20075;-72
2023/12/27 11:28:26;;;;;;;3.88;2.53;;;5.50;99.90;;;;;;5057004;28;20095;-73
2023/12/27 11:30:54;;;;;;;3.80;2.72;;;5.50;99.90;;;;;;5024933;28;20076;-69
2023/12/27 11:33:23;;;;;;;3.45;2.40;;;5.50;99.90;;;;;;5058581;28;20053;-69
2023/12/27 11:35:51;;;;;;;3.08;2.47;;;5.60;99.90;;;;;;5025081;28;20041;-69
2023/12/27 11:38:25;;;;;;;4.30;2.40;;;5.60;99.90;;;;;;5023858;28;20089;-72
2023/12/27 11:40:52;;;;;;;8.23;2.97;;;5.60;99.90;;;;;;5025227;28;20079;-72
2023/12/27 11:43:23;;;;;;;6.18;2.63;;;5.70;99.90;;;;;;5024360;28;20133;-72
2023/12/27 11:46:09;;;;;;;4.05;2.85;;;5.70;99.90;;;;;;5024318;28;20091;-72
2023/12/27 11:48:38;;;;;;;7.70;2.75;;;5.70;99.90;;;;;;5007759;28;20560;-72
2023/12/27 11:51:35;;;;;;;5.95;3.35;;;5.80;99.90;;;;;;5025914;28;20740;-72
2023/12/27 11:54:03;;;;;;;5.75;3.20;;;5.80;99.90;;;;;;5024145;28;20072;-71
2023/12/27 11:56:31;;;;;;;5.80;3.10;;;5.90;99.90;;;;;;5008702;28;20044;-72
2023/12/27 11:58:58;;;;;;;5.72;3.08;;;5.90;99.90;;;;;;5024488;28;20037;-71
2023/12/27 12:01:31;;;;;;;7.15;3.17;;;5.90;99.90;;;;;;5025476;28;20132;-71
2023/12/27 12:04:09;;;;;;;7.30;3.65;;;6.00;99.90;;;;;;5024009;28;20485;-72
2023/12/27 12:06:52;;;;;;;9.23;3.33;;;6.10;99.90;;;;;;5023186;28;20065;-71
2023/12/27 12:09:20;;;;;;;5.47;3.35;;;6.10;99.90;;;;;;5024224;28;20041;-70
2023/12/27 12:11:46;;;;;;;6.50;3.58;;;6.20;99.90;;;;;;5024359;28;20116;-72
2023/12/27 12:14:12;;;;;;;9.52;5.13;;;6.20;99.90;;;;;;5024599;28;20404;-71
2023/12/27 12:16:39;;;;;;;5.78;4.22;;;6.20;99.90;;;;;;5007000;28;20056;-71
2023/12/27 12:19:08;;;;;;;7.68;3.70;;;6.30;99.90;;;;;;5026202;28;20048;-70
2023/12/27 12:21:34;;;;;;;3.77;2.83;;;6.30;99.90;;;;;;5024701;28;20053;-71
2023/12/27 12:24:07;;;;;;;5.75;3.92;;;6.40;99.90;;;;;;5023487;28;20053;-71
2023/12/27 12:26:34;;;;;;;6.55;3.70;;;6.40;99.90;;;;;;5058253;28;20050;-69
2023/12/27 12:29:01;;;;;;;7.88;4.28;;;6.50;99.90;;;;;;5025302;28;20038;-72
2023/12/27 12:31:27;;;;;;;8.77;3.88;;;6.50;99.90;;;;;;5056680;28;20160;-71
2023/12/27 12:33:53;;;;;;;7.03;4.82;;;6.50;99.90;;;;;;5023720;28;20112;-72
2023/12/27 12:36:19;;;;;;;10.25;4.20;;;6.60;99.90;;;;;;5024040;28;20509;-71
2023/12/27 12:38:45;;;;;;;7.85;3.97;;;6.60;99.90;;;;;;5023578;28;20037;-72
2023/12/27 12:41:11;;;;;;;7.65;4.97;;;6.60;99.90;;;;;;5005225;28;20049;-71
2023/12/27 12:43:38;;;;;;;9.55;5.32;;;6.60;99.90;;;;;;5039643;28;20521;-72
2023/12/27 12:46:04;;;;;;;5.00;2.80;;;6.70;99.90;;;;;;5024798;28;20052;-71
2023/12/27 12:48:30;;;;;;;6.40;3.55;;;6.70;99.90;;;;;;5059310;28;20183;-70
2023/12/27 12:51:15;;;;;;;10.95;4.78;;;6.80;99.90;;;;;;5026320;28;20054;-72
2023/12/27 12:53:41;;;;;;;6.97;4.32;;;6.80;99.90;;;;;;5025227;28;20116;-69
2023/12/27 12:56:08;;;;;;;9.10;4.68;;;6.90;99.90;;;;;;5025141;28;20048;-71